sensor_id;sensor_type;location;lat;lon;timestamp;P1;durP1;ratioP1;P2;durP2;ratioP2
1336;SDS011;662;48.814;9.318;2024-01-15T00:01:47;35.13;;;20.47;;
1336;SDS011;662;48.814;9.318;2024-01-15T00:04:13;36.60;;;21.00;;
1336;SDS011;662;48.814;9.318;2024-01-15T00:06:38;34.60;;;19.67;;
1336;SDS011;662;48.814;9.318;2024-01-15T00:09:04;31.07;;;19.67;;
1336;SDS011;662;48.814;9.318;2024-01-15T00:11:31;33.13;;;20.17;;
1336;SDS011;662;48.814;9.318;2024-01-15T00:13:57;35.73;;;21.13;;
1336;SDS011;662;48.814;9.318;2024-01-15T00:16:23;35.27;;;20.33;;
1336;SDS011;662;48.814;9.318;2024-01-15T00:18:49;31.50;;;19.30;;
1336;SDS011;662;48.814;9.318;2024-01-15T00:21:14;35.27;;;19.37;;
1336;SDS011;662;48.814;9.318;2024-01-15T00:23:49;32.07;;;19.40;;
1336;SDS011;662;48.814;9.318;2024-01-15T00:26:14;35.33;;;18.80;;
1336;SDS011;662;48.814;9.318;2024-01-15T00:28:40;34.17;;;19.90;;
1336;SDS011;662;48.814;9.318;2024-01-15T00:31:06;39.57;;;20.23;;
1336;SDS011;662;48.814;9.318;2024-01-15T00:33:32;39.43;;;19.67;;
1336;SDS011;662;48.814;9.318;2024-01-15T00:35:57;39.07;;;19.83;;
1336;SDS011;662;48.814;9.318;2024-01-15T00:38:23;32.77;;;19.00;;
1336;SDS011;662;48.814;9.318;2024-01-15T00:40:49;37.30;;;20.50;;
1336;SDS011;662;48.814;9.318;2024-01-15T00:43:14;36.80;;;20.60;;
1336;SDS011;662;48.814;9.318;2024-01-15T00:45:44;35.67;;;21.20;;
1336;SDS011;662;48.814;9.318;2024-01-15T00:48:09;41.60;;;22.17;;
1336;SDS011;662;48.814;9.318;2024-01-15T00:50:35;32.57;;;19.83;;
1336;SDS011;662;48.814;9.318;2024-01-15T00:53:01;38.13;;;19.73;;
1336;SDS011;662;48.814;9.318;2024-01-15T00:57:53;33.70;;;19.47;;
1336;SDS011;662;48.814;9.318;2024-01-15T01:00:18;42.37;;;20.20;;
1336;SDS011;662;48.814;9.318;2024-01-15T01:02:44;37.23;;;20.83;;
1336;SDS011;662;48.814;9.318;2024-01-15T01:05:10;37.33;;;21.07;;
1336;SDS011;662;48.814;9.318;2024-01-15T01:07:35;32.97;;;19.20;;
1336;SDS011;662;48.814;9.318;2024-01-15T01:10:01;35.83;;;20.40;;
1336;SDS011;662;48.814;9.318;2024-01-15T01:12:26;37.70;;;21.00;;
1336;SDS011;662;48.814;9.318;2024-01-15T01:14:52;35.60;;;20.43;;
1336;SDS011;662;48.814;9.318;2024-01-15T01:17:18;34.43;;;19.17;;
1336;SDS011;662;48.814;9.318;2024-01-15T01:19:43;40.07;;;20.33;;
1336;SDS011;662;48.814;9.318;2024-01-15T01:22:09;33.40;;;19.50;;
1336;SDS011;662;48.814;9.318;2024-01-15T01:24:35;32.30;;;19.27;;
1336;SDS011;662;48.814;9.318;2024-01-15T01:27:00;32.57;;;18.33;;
1336;SDS011;662;48.814;9.318;2024-01-15T01:29:26;38.93;;;21.17;;
1336;SDS011;662;48.814;9.318;2024-01-15T01:31:52;32.87;;;19.20;;
1336;SDS011;662;48.814;9.318;2024-01-15T01:34:17;35.47;;;20.63;;
1336;SDS011;662;48.814;9.318;2024-01-15T01:36:46;29.20;;;20.33;;
1336;SDS011;662;48.814;9.318;2024-01-15T01:39:12;31.23;;;18.63;;
1336;SDS011;662;48.814;9.318;2024-01-15T01:41:38;31.80;;;18.30;;
1336;SDS011;662;48.814;9.318;2024-01-15T01:44:04;31.93;;;18.03;;
1336;SDS011;662;48.814;9.318;2024-01-15T01:46:31;34.03;;;18.27;;
1336;SDS011;662;48.814;9.318;2024-01-15T01:48:57;35.57;;;19.23;;
1336;SDS011;662;48.814;9.318;2024-01-15T01:51:26;35.97;;;19.43;;
1336;SDS011;662;48.814;9.318;2024-01-15T01:53:52;32.50;;;18.43;;
1336;SDS011;662;48.814;9.318;2024-01-15T01:56:17;34.47;;;20.60;;
1336;SDS011;662;48.814;9.318;2024-01-15T01:58:46;35.23;;;19.07;;
1336;SDS011;662;48.814;9.318;2024-01-15T02:01:12;30.23;;;17.70;;
1336;SDS011;662;48.814;9.318;2024-01-15T02:03:39;29.37;;;18.10;;
1336;SDS011;662;48.814;9.318;2024-01-15T02:06:06;29.57;;;16.50;;
1336;SDS011;662;48.814;9.318;2024-01-15T02:08:31;29.23;;;17.13;;
1336;SDS011;662;48.814;9.318;2024-01-15T02:10:57;26.53;;;16.27;;
1336;SDS011;662;48.814;9.318;2024-01-15T02:13:23;29.80;;;16.40;;
1336;SDS011;662;48.814;9.318;2024-01-15T02:15:48;32.53;;;18.67;;
1336;SDS011;662;48.814;9.318;2024-01-15T02:18:14;27.27;;;16.90;;
1336;SDS011;662;48.814;9.318;2024-01-15T02:20:39;29.40;;;17.77;;
1336;SDS011;662;48.814;9.318;2024-01-15T02:23:09;28.50;;;17.50;;
1336;SDS011;662;48.814;9.318;2024-01-15T02:25:45;34.90;;;17.37;;
1336;SDS011;662;48.814;9.318;2024-01-15T02:28:12;23.93;;;15.10;;
1336;SDS011;662;48.814;9.318;2024-01-15T02:30:39;23.17;;;14.87;;
1336;SDS011;662;48.814;9.318;2024-01-15T02:33:06;23.40;;;13.67;;
1336;SDS011;662;48.814;9.318;2024-01-15T02:35:33;24.13;;;14.40;;
1336;SDS011;662;48.814;9.318;2024-01-15T02:37:59;21.87;;;11.90;;
1336;SDS011;662;48.814;9.318;2024-01-15T02:40:24;19.03;;;10.73;;
1336;SDS011;662;48.814;9.318;2024-01-15T02:42:50;16.87;;;10.17;;
1336;SDS011;662;48.814;9.318;2024-01-15T02:45:16;18.60;;;10.93;;
1336;SDS011;662;48.814;9.318;2024-01-15T02:47:42;14.73;;;9.40;;
1336;SDS011;662;48.814;9.318;2024-01-15T02:50:07;14.80;;;9.60;;
1336;SDS011;662;48.814;9.318;2024-01-15T02:52:33;17.40;;;10.07;;
1336;SDS011;662;48.814;9.318;2024-01-15T02:54:59;15.40;;;10.50;;
1336;SDS011;662;48.814;9.318;2024-01-15T02:57:24;17.13;;;10.77;;
1336;SDS011;662;48.814;9.318;2024-01-15T02:59:50;16.90;;;10.33;;
1336;SDS011;662;48.814;9.318;2024-01-15T03:02:16;18.67;;;10.80;;
1336;SDS011;662;48.814;9.318;2024-01-15T03:04:44;19.23;;;10.90;;
1336;SDS011;662;48.814;9.318;2024-01-15T03:07:10;14.07;;;10.10;;
1336;SDS011;662;48.814;9.318;2024-01-15T03:09:36;12.87;;;9.20;;
1336;SDS011;662;48.814;9.318;2024-01-15T03:12:01;14.50;;;9.70;;
1336;SDS011;662;48.814;9.318;2024-01-15T03:14:27;19.57;;;10.57;;
1336;SDS011;662;48.814;9.318;2024-01-15T03:16:53;16.47;;;10.57;;
1336;SDS011;662;48.814;9.318;2024-01-15T03:19:19;17.97;;;10.47;;
1336;SDS011;662;48.814;9.318;2024-01-15T03:21:44;18.47;;;10.53;;
1336;SDS011;662;48.814;9.318;2024-01-15T03:24:10;20.67;;;10.70;;
1336;SDS011;662;48.814;9.318;2024-01-15T03:26:36;15.63;;;10.10;;
1336;SDS011;662;48.814;9.318;2024-01-15T03:29:01;17.50;;;10.60;;
1336;SDS011;662;48.814;9.318;2024-01-15T03:31:27;19.73;;;10.90;;
1336;SDS011;662;48.814;9.318;2024-01-15T03:33:52;19.73;;;11.13;;
1336;SDS011;662;48.814;9.318;2024-01-15T03:36:18;15.43;;;9.40;;
1336;SDS011;662;48.814;9.318;2024-01-15T03:38:43;16.57;;;10.47;;
1336;SDS011;662;48.814;9.318;2024-01-15T03:41:09;15.00;;;10.00;;
1336;SDS011;662;48.814;9.318;2024-01-15T03:43:35;15.93;;;9.70;;
1336;SDS011;662;48.814;9.318;2024-01-15T03:46:00;15.17;;;10.47;;
1336;SDS011;662;48.814;9.318;2024-01-15T03:48:27;14.37;;;10.07;;
1336;SDS011;662;48.814;9.318;2024-01-15T03:50:52;15.70;;;10.47;;
1336;SDS011;662;48.814;9.318;2024-01-15T03:53:18;15.37;;;10.00;;
1336;SDS011;662;48.814;9.318;2024-01-15T03:55:44;16.60;;;10.00;;
1336;SDS011;662;48.814;9.318;2024-01-15T03:58:09;13.70;;;10.37;;
1336;SDS011;662;48.814;9.318;2024-01-15T04:00:35;15.60;;;10.53;;
1336;SDS011;662;48.814;9.318;2024-01-15T04:03:01;16.80;;;9.87;;
1336;SDS011;662;48.814;9.318;2024-01-15T04:05:26;15.70;;;9.40;;
1336;SDS011;662;48.814;9.318;2024-01-15T04:07:52;18.10;;;10.87;;
1336;SDS011;662;48.814;9.318;2024-01-15T04:10:17;19.77;;;11.33;;
1336;SDS011;662;48.814;9.318;2024-01-15T04:12:43;18.10;;;9.20;;
1336;SDS011;662;48.814;9.318;2024-01-15T04:15:11;14.40;;;9.33;;
1336;SDS011;662;48.814;9.318;2024-01-15T04:17:37;15.83;;;10.00;;
1336;SDS011;662;48.814;9.318;2024-01-15T04:20:03;14.77;;;10.17;;
1336;SDS011;662;48.814;9.318;2024-01-15T04:22:29;15.50;;;9.90;;
1336;SDS011;662;48.814;9.318;2024-01-15T04:24:55;16.63;;;10.40;;
1336;SDS011;662;48.814;9.318;2024-01-15T04:27:21;15.13;;;10.00;;
1336;SDS011;662;48.814;9.318;2024-01-15T04:29:46;16.43;;;10.50;;
1336;SDS011;662;48.814;9.318;2024-01-15T04:32:12;16.60;;;10.30;;
1336;SDS011;662;48.814;9.318;2024-01-15T04:34:38;16.80;;;11.17;;
1336;SDS011;662;48.814;9.318;2024-01-15T04:37:03;17.80;;;10.50;;
1336;SDS011;662;48.814;9.318;2024-01-15T04:39:29;19.10;;;10.30;;
1336;SDS011;662;48.814;9.318;2024-01-15T04:41:55;15.23;;;9.57;;
1336;SDS011;662;48.814;9.318;2024-01-15T04:44:20;16.47;;;11.03;;
1336;SDS011;662;48.814;9.318;2024-01-15T04:46:46;13.20;;;8.77;;
1336;SDS011;662;48.814;9.318;2024-01-15T04:49:11;18.67;;;10.53;;
1336;SDS011;662;48.814;9.318;2024-01-15T04:51:37;14.67;;;9.47;;
1336;SDS011;662;48.814;9.318;2024-01-15T04:54:03;16.77;;;9.80;;
1336;SDS011;662;48.814;9.318;2024-01-15T04:56:29;11.13;;;8.00;;
1336;SDS011;662;48.814;9.318;2024-01-15T04:58:54;19.80;;;9.73;;
1336;SDS011;662;48.814;9.318;2024-01-15T05:01:20;14.70;;;9.17;;
1336;SDS011;662;48.814;9.318;2024-01-15T05:03:45;12.80;;;9.00;;
1336;SDS011;662;48.814;9.318;2024-01-15T05:06:11;13.13;;;8.80;;
1336;SDS011;662;48.814;9.318;2024-01-15T05:08:37;12.40;;;8.80;;
1336;SDS011;662;48.814;9.318;2024-01-15T05:11:02;14.80;;;9.60;;
1336;SDS011;662;48.814;9.318;2024-01-15T05:13:28;13.67;;;8.87;;
1336;SDS011;662;48.814;9.318;2024-01-15T05:15:54;13.27;;;8.83;;
1336;SDS011;662;48.814;9.318;2024-01-15T05:18:19;15.93;;;9.80;;
1336;SDS011;662;48.814;9.318;2024-01-15T05:20:45;13.63;;;9.17;;
1336;SDS011;662;48.814;9.318;2024-01-15T05:23:11;17.53;;;10.37;;
1336;SDS011;662;48.814;9.318;2024-01-15T05:25:36;14.27;;;8.70;;
1336;SDS011;662;48.814;9.318;2024-01-15T05:28:02;17.27;;;9.07;;
1336;SDS011;662;48.814;9.318;2024-01-15T05:30:28;10.57;;;8.30;;
1336;SDS011;662;48.814;9.318;2024-01-15T05:32:53;13.87;;;8.80;;
1336;SDS011;662;48.814;9.318;2024-01-15T05:35:19;12.00;;;8.77;;
1336;SDS011;662;48.814;9.318;2024-01-15T05:37:45;14.50;;;9.33;;
1336;SDS011;662;48.814;9.318;2024-01-15T05:40:11;14.60;;;9.50;;
1336;SDS011;662;48.814;9.318;2024-01-15T05:42:38;13.23;;;10.07;;
1336;SDS011;662;48.814;9.318;2024-01-15T05:45:04;14.03;;;9.30;;
1336;SDS011;662;48.814;9.318;2024-01-15T05:47:31;10.73;;;7.83;;
1336;SDS011;662;48.814;9.318;2024-01-15T05:49:57;14.27;;;7.80;;
1336;SDS011;662;48.814;9.318;2024-01-15T05:52:23;12.30;;;8.70;;
1336;SDS011;662;48.814;9.318;2024-01-15T05:54:49;11.13;;;8.23;;
1336;SDS011;662;48.814;9.318;2024-01-15T05:57:15;12.80;;;8.67;;
1336;SDS011;662;48.814;9.318;2024-01-15T05:59:44;13.00;;;8.07;;
1336;SDS011;662;48.814;9.318;2024-01-15T06:02:10;9.40;;;7.90;;
1336;SDS011;662;48.814;9.318;2024-01-15T06:04:36;14.07;;;8.40;;
1336;SDS011;662;48.814;9.318;2024-01-15T06:07:02;11.93;;;8.67;;
1336;SDS011;662;48.814;9.318;2024-01-15T06:09:28;13.30;;;9.10;;
1336;SDS011;662;48.814;9.318;2024-01-15T06:11:54;12.13;;;8.63;;
1336;SDS011;662;48.814;9.318;2024-01-15T06:14:20;12.67;;;7.70;;
1336;SDS011;662;48.814;9.318;2024-01-15T06:16:45;12.80;;;8.73;;
1336;SDS011;662;48.814;9.318;2024-01-15T06:19:11;14.67;;;8.87;;
1336;SDS011;662;48.814;9.318;2024-01-15T06:21:37;14.80;;;8.50;;
1336;SDS011;662;48.814;9.318;2024-01-15T06:24:02;14.60;;;9.33;;
1336;SDS011;662;48.814;9.318;2024-01-15T06:26:28;13.00;;;8.50;;
1336;SDS011;662;48.814;9.318;2024-01-15T06:28:54;12.93;;;8.00;;
1336;SDS011;662;48.814;9.318;2024-01-15T06:31:20;13.50;;;9.03;;
1336;SDS011;662;48.814;9.318;2024-01-15T06:33:46;14.90;;;9.60;;
1336;SDS011;662;48.814;9.318;2024-01-15T06:36:13;14.37;;;8.80;;
1336;SDS011;662;48.814;9.318;2024-01-15T06:38:39;13.10;;;9.27;;
1336;SDS011;662;48.814;9.318;2024-01-15T06:41:05;14.83;;;9.23;;
1336;SDS011;662;48.814;9.318;2024-01-15T06:43:30;13.13;;;9.07;;
1336;SDS011;662;48.814;9.318;2024-01-15T06:45:56;14.50;;;9.40;;
1336;SDS011;662;48.814;9.318;2024-01-15T06:48:22;14.60;;;9.70;;
1336;SDS011;662;48.814;9.318;2024-01-15T06:50:47;16.90;;;9.53;;
1336;SDS011;662;48.814;9.318;2024-01-15T06:53:13;15.73;;;8.40;;
1336;SDS011;662;48.814;9.318;2024-01-15T06:55:39;11.50;;;8.60;;
1336;SDS011;662;48.814;9.318;2024-01-15T06:58:04;11.17;;;8.57;;
1336;SDS011;662;48.814;9.318;2024-01-15T07:00:30;12.50;;;9.40;;
1336;SDS011;662;48.814;9.318;2024-01-15T07:02:56;12.80;;;8.57;;
1336;SDS011;662;48.814;9.318;2024-01-15T07:05:22;11.57;;;8.63;;
1336;SDS011;662;48.814;9.318;2024-01-15T07:07:48;12.80;;;9.60;;
1336;SDS011;662;48.814;9.318;2024-01-15T07:10:14;9.50;;;7.70;;
1336;SDS011;662;48.814;9.318;2024-01-15T07:12:43;13.00;;;9.23;;
1336;SDS011;662;48.814;9.318;2024-01-15T07:15:09;13.83;;;8.87;;
1336;SDS011;662;48.814;9.318;2024-01-15T07:17:35;12.63;;;9.43;;
1336;SDS011;662;48.814;9.318;2024-01-15T07:20:05;14.97;;;9.30;;
1336;SDS011;662;48.814;9.318;2024-01-15T07:22:33;9.80;;;8.30;;
1336;SDS011;662;48.814;9.318;2024-01-15T07:24:59;12.10;;;9.33;;
1336;SDS011;662;48.814;9.318;2024-01-15T07:27:24;13.67;;;8.83;;
1336;SDS011;662;48.814;9.318;2024-01-15T07:29:50;12.80;;;8.53;;
1336;SDS011;662;48.814;9.318;2024-01-15T07:32:16;14.40;;;9.00;;
1336;SDS011;662;48.814;9.318;2024-01-15T07:34:42;11.00;;;8.93;;
1336;SDS011;662;48.814;9.318;2024-01-15T07:37:07;11.30;;;8.07;;
1336;SDS011;662;48.814;9.318;2024-01-15T07:39:33;15.17;;;9.47;;
1336;SDS011;662;48.814;9.318;2024-01-15T07:41:59;14.10;;;9.03;;
1336;SDS011;662;48.814;9.318;2024-01-15T07:44:27;9.50;;;8.00;;
1336;SDS011;662;48.814;9.318;2024-01-15T07:46:53;10.57;;;8.07;;
1336;SDS011;662;48.814;9.318;2024-01-15T07:49:18;11.93;;;8.27;;
1336;SDS011;662;48.814;9.318;2024-01-15T07:51:44;14.17;;;8.67;;
1336;SDS011;662;48.814;9.318;2024-01-15T07:54:10;10.00;;;7.93;;
1336;SDS011;662;48.814;9.318;2024-01-15T07:56:56;12.17;;;8.80;;
1336;SDS011;662;48.814;9.318;2024-01-15T07:59:23;11.73;;;7.60;;
1336;SDS011;662;48.814;9.318;2024-01-15T08:01:49;10.57;;;7.40;;
1336;SDS011;662;48.814;9.318;2024-01-15T08:04:15;12.07;;;7.80;;
1336;SDS011;662;48.814;9.318;2024-01-15T08:06:40;11.13;;;7.77;;
1336;SDS011;662;48.814;9.318;2024-01-15T08:09:06;10.87;;;7.50;;
1336;SDS011;662;48.814;9.318;2024-01-15T08:11:34;12.57;;;7.63;;
1336;SDS011;662;48.814;9.318;2024-01-15T08:14:00;10.43;;;8.23;;
1336;SDS011;662;48.814;9.318;2024-01-15T08:16:27;10.60;;;8.27;;
1336;SDS011;662;48.814;9.318;2024-01-15T08:18:53;13.43;;;8.27;;
1336;SDS011;662;48.814;9.318;2024-01-15T08:21:19;10.33;;;7.40;;
1336;SDS011;662;48.814;9.318;2024-01-15T08:23:44;16.03;;;9.20;;
1336;SDS011;662;48.814;9.318;2024-01-15T08:26:10;10.83;;;7.73;;
1336;SDS011;662;48.814;9.318;2024-01-15T08:28:36;12.13;;;8.47;;
1336;SDS011;662;48.814;9.318;2024-01-15T08:31:02;12.83;;;9.03;;
1336;SDS011;662;48.814;9.318;2024-01-15T08:33:28;11.57;;;8.40;;
1336;SDS011;662;48.814;9.318;2024-01-15T08:35:54;13.77;;;8.57;;
1336;SDS011;662;48.814;9.318;2024-01-15T08:38:20;10.80;;;7.20;;
1336;SDS011;662;48.814;9.318;2024-01-15T08:40:45;12.17;;;7.43;;
1336;SDS011;662;48.814;9.318;2024-01-15T08:43:11;11.17;;;6.97;;
1336;SDS011;662;48.814;9.318;2024-01-15T08:45:37;12.43;;;7.93;;
1336;SDS011;662;48.814;9.318;2024-01-15T08:48:03;10.57;;;7.17;;
1336;SDS011;662;48.814;9.318;2024-01-15T08:50:29;11.80;;;7.60;;
1336;SDS011;662;48.814;9.318;2024-01-15T08:52:56;10.03;;;7.80;;
1336;SDS011;662;48.814;9.318;2024-01-15T08:55:22;11.00;;;7.47;;
1336;SDS011;662;48.814;9.318;2024-01-15T08:57:48;10.93;;;7.50;;
1336;SDS011;662;48.814;9.318;2024-01-15T09:00:14;11.33;;;7.20;;
1336;SDS011;662;48.814;9.318;2024-01-15T09:02:40;10.77;;;7.30;;
1336;SDS011;662;48.814;9.318;2024-01-15T09:05:09;10.63;;;7.23;;
1336;SDS011;662;48.814;9.318;2024-01-15T09:07:35;8.20;;;7.27;;
1336;SDS011;662;48.814;9.318;2024-01-15T09:10:00;12.60;;;7.33;;
1336;SDS011;662;48.814;9.318;2024-01-15T09:12:26;9.40;;;6.23;;
1336;SDS011;662;48.814;9.318;2024-01-15T09:14:52;12.03;;;7.33;;
1336;SDS011;662;48.814;9.318;2024-01-15T09:17:19;8.60;;;7.13;;
1336;SDS011;662;48.814;9.318;2024-01-15T09:19:45;11.73;;;7.00;;
1336;SDS011;662;48.814;9.318;2024-01-15T09:22:12;9.83;;;6.20;;
1336;SDS011;662;48.814;9.318;2024-01-15T09:24:39;10.53;;;6.97;;
1336;SDS011;662;48.814;9.318;2024-01-15T09:27:06;7.83;;;5.30;;
1336;SDS011;662;48.814;9.318;2024-01-15T09:29:31;12.40;;;6.07;;
1336;SDS011;662;48.814;9.318;2024-01-15T09:31:57;8.63;;;5.50;;
1336;SDS011;662;48.814;9.318;2024-01-15T09:34:23;8.90;;;5.90;;
1336;SDS011;662;48.814;9.318;2024-01-15T09:36:49;10.47;;;6.27;;
1336;SDS011;662;48.814;9.318;2024-01-15T09:39:14;7.63;;;5.70;;
1336;SDS011;662;48.814;9.318;2024-01-15T09:41:40;9.37;;;6.03;;
1336;SDS011;662;48.814;9.318;2024-01-15T09:44:06;6.90;;;5.63;;
1336;SDS011;662;48.814;9.318;2024-01-15T09:46:34;9.53;;;5.27;;
1336;SDS011;662;48.814;9.318;2024-01-15T09:49:00;9.73;;;6.20;;
1336;SDS011;662;48.814;9.318;2024-01-15T09:51:28;7.40;;;5.27;;
1336;SDS011;662;48.814;9.318;2024-01-15T09:53:57;9.40;;;5.57;;
1336;SDS011;662;48.814;9.318;2024-01-15T09:56:23;7.87;;;5.57;;
1336;SDS011;662;48.814;9.318;2024-01-15T09:58:49;6.30;;;5.10;;
1336;SDS011;662;48.814;9.318;2024-01-15T10:01:17;7.97;;;5.30;;
1336;SDS011;662;48.814;9.318;2024-01-15T10:03:45;6.90;;;4.60;;
1336;SDS011;662;48.814;9.318;2024-01-15T10:06:13;9.50;;;5.70;;
1336;SDS011;662;48.814;9.318;2024-01-15T10:08:42;7.80;;;5.10;;
1336;SDS011;662;48.814;9.318;2024-01-15T10:11:12;7.27;;;4.80;;
1336;SDS011;662;48.814;9.318;2024-01-15T10:13:38;8.50;;;5.23;;
1336;SDS011;662;48.814;9.318;2024-01-15T10:16:04;8.67;;;5.70;;
1336;SDS011;662;48.814;9.318;2024-01-15T10:18:31;7.37;;;5.10;;
1336;SDS011;662;48.814;9.318;2024-01-15T10:20:57;8.47;;;5.17;;
1336;SDS011;662;48.814;9.318;2024-01-15T10:23:23;7.33;;;5.07;;
1336;SDS011;662;48.814;9.318;2024-01-15T10:25:49;5.37;;;4.80;;
1336;SDS011;662;48.814;9.318;2024-01-15T10:28:16;8.73;;;5.40;;
1336;SDS011;662;48.814;9.318;2024-01-15T10:30:44;9.57;;;5.00;;
1336;SDS011;662;48.814;9.318;2024-01-15T10:33:10;7.60;;;5.40;;
1336;SDS011;662;48.814;9.318;2024-01-15T10:35:37;7.70;;;4.77;;
1336;SDS011;662;48.814;9.318;2024-01-15T10:38:03;8.00;;;5.00;;
1336;SDS011;662;48.814;9.318;2024-01-15T10:40:31;6.97;;;5.03;;
1336;SDS011;662;48.814;9.318;2024-01-15T10:42:56;7.63;;;5.47;;
1336;SDS011;662;48.814;9.318;2024-01-15T10:45:22;7.23;;;4.40;;
1336;SDS011;662;48.814;9.318;2024-01-15T10:47:48;7.80;;;5.00;;
1336;SDS011;662;48.814;9.318;2024-01-15T10:50:14;8.07;;;4.37;;
1336;SDS011;662;48.814;9.318;2024-01-15T10:52:41;7.73;;;4.93;;
1336;SDS011;662;48.814;9.318;2024-01-15T10:55:10;7.30;;;5.37;;
1336;SDS011;662;48.814;9.318;2024-01-15T10:57:37;11.50;;;7.83;;
1336;SDS011;662;48.814;9.318;2024-01-15T11:00:03;9.70;;;7.50;;
1336;SDS011;662;48.814;9.318;2024-01-15T11:02:34;14.67;;;8.57;;
1336;SDS011;662;48.814;9.318;2024-01-15T11:05:02;8.87;;;5.83;;
1336;SDS011;662;48.814;9.318;2024-01-15T11:07:29;7.10;;;4.60;;
1336;SDS011;662;48.814;9.318;2024-01-15T11:09:55;7.97;;;5.50;;
1336;SDS011;662;48.814;9.318;2024-01-15T11:12:23;9.23;;;6.50;;
1336;SDS011;662;48.814;9.318;2024-01-15T11:14:50;8.60;;;5.90;;
1336;SDS011;662;48.814;9.318;2024-01-15T11:17:16;6.50;;;4.23;;
1336;SDS011;662;48.814;9.318;2024-01-15T11:19:44;5.00;;;4.50;;
1336;SDS011;662;48.814;9.318;2024-01-15T11:22:53;5.60;;;4.27;;
1336;SDS011;662;48.814;9.318;2024-01-15T11:25:13;6.77;;;4.20;;
1336;SDS011;662;48.814;9.318;2024-01-15T11:30:09;7.00;;;5.50;;
1336;SDS011;662;48.814;9.318;2024-01-15T11:32:36;7.13;;;5.30;;
1336;SDS011;662;48.814;9.318;2024-01-15T11:35:02;7.83;;;5.53;;
1336;SDS011;662;48.814;9.318;2024-01-15T11:37:29;6.70;;;4.80;;
1336;SDS011;662;48.814;9.318;2024-01-15T11:40:18;6.07;;;4.97;;
1336;SDS011;662;48.814;9.318;2024-01-15T11:42:44;9.97;;;5.87;;
1336;SDS011;662;48.814;9.318;2024-01-15T11:45:10;8.87;;;5.80;;
1336;SDS011;662;48.814;9.318;2024-01-15T11:48:03;7.47;;;5.83;;
1336;SDS011;662;48.814;9.318;2024-01-15T11:50:34;9.00;;;6.33;;
1336;SDS011;662;48.814;9.318;2024-01-15T11:53:00;6.93;;;5.23;;
1336;SDS011;662;48.814;9.318;2024-01-15T11:55:30;6.47;;;5.57;;
1336;SDS011;662;48.814;9.318;2024-01-15T11:58:00;5.80;;;5.20;;
1336;SDS011;662;48.814;9.318;2024-01-15T12:00:26;9.03;;;5.50;;
1336;SDS011;662;48.814;9.318;2024-01-15T12:02:53;9.20;;;4.97;;
1336;SDS011;662;48.814;9.318;2024-01-15T12:05:19;8.73;;;6.00;;
1336;SDS011;662;48.814;9.318;2024-01-15T12:07:49;7.23;;;5.80;;
1336;SDS011;662;48.814;9.318;2024-01-15T12:10:21;7.50;;;6.00;;
1336;SDS011;662;48.814;9.318;2024-01-15T12:13:00;7.70;;;6.67;;
1336;SDS011;662;48.814;9.318;2024-01-15T12:15:28;8.23;;;6.40;;
1336;SDS011;662;48.814;9.318;2024-01-15T12:17:55;10.30;;;8.10;;
1336;SDS011;662;48.814;9.318;2024-01-15T12:20:28;9.40;;;6.60;;
1336;SDS011;662;48.814;9.318;2024-01-15T12:22:55;10.00;;;7.57;;
1336;SDS011;662;48.814;9.318;2024-01-15T12:25:21;10.60;;;6.50;;
1336;SDS011;662;48.814;9.318;2024-01-15T12:27:47;7.80;;;6.60;;
1336;SDS011;662;48.814;9.318;2024-01-15T12:30:13;7.37;;;5.57;;
1336;SDS011;662;48.814;9.318;2024-01-15T12:32:40;6.53;;;5.70;;
1336;SDS011;662;48.814;9.318;2024-01-15T12:35:12;7.50;;;5.97;;
1336;SDS011;662;48.814;9.318;2024-01-15T12:37:39;6.30;;;4.83;;
1336;SDS011;662;48.814;9.318;2024-01-15T12:40:06;7.40;;;5.70;;
1336;SDS011;662;48.814;9.318;2024-01-15T12:42:35;8.40;;;5.90;;
1336;SDS011;662;48.814;9.318;2024-01-15T12:45:02;7.73;;;5.97;;
1336;SDS011;662;48.814;9.318;2024-01-15T12:47:29;8.63;;;5.87;;
1336;SDS011;662;48.814;9.318;2024-01-15T12:49:55;7.13;;;5.93;;
1336;SDS011;662;48.814;9.318;2024-01-15T12:52:22;10.70;;;6.60;;
1336;SDS011;662;48.814;9.318;2024-01-15T12:54:48;7.70;;;6.10;;
1336;SDS011;662;48.814;9.318;2024-01-15T12:57:15;7.60;;;6.10;;
1336;SDS011;662;48.814;9.318;2024-01-15T12:59:41;9.00;;;5.93;;
1336;SDS011;662;48.814;9.318;2024-01-15T13:02:07;6.30;;;5.70;;
1336;SDS011;662;48.814;9.318;2024-01-15T13:04:33;7.03;;;5.90;;
1336;SDS011;662;48.814;9.318;2024-01-15T13:06:58;7.47;;;6.00;;
1336;SDS011;662;48.814;9.318;2024-01-15T13:09:24;7.60;;;6.67;;
1336;SDS011;662;48.814;9.318;2024-01-15T13:11:49;12.93;;;7.30;;
1336;SDS011;662;48.814;9.318;2024-01-15T13:14:16;10.13;;;6.53;;
1336;SDS011;662;48.814;9.318;2024-01-15T13:16:41;7.43;;;6.10;;
1336;SDS011;662;48.814;9.318;2024-01-15T13:19:10;9.07;;;7.10;;
1336;SDS011;662;48.814;9.318;2024-01-15T13:21:41;7.17;;;5.57;;
1336;SDS011;662;48.814;9.318;2024-01-15T13:24:07;7.60;;;5.67;;
1336;SDS011;662;48.814;9.318;2024-01-15T13:26:36;8.20;;;6.83;;
1336;SDS011;662;48.814;9.318;2024-01-15T13:29:04;10.23;;;7.10;;
1336;SDS011;662;48.814;9.318;2024-01-15T13:31:30;8.90;;;6.80;;
1336;SDS011;662;48.814;9.318;2024-01-15T13:33:57;7.03;;;6.10;;
1336;SDS011;662;48.814;9.318;2024-01-15T13:36:23;7.43;;;6.67;;
1336;SDS011;662;48.814;9.318;2024-01-15T13:38:50;8.50;;;7.20;;
1336;SDS011;662;48.814;9.318;2024-01-15T13:41:16;6.20;;;5.23;;
1336;SDS011;662;48.814;9.318;2024-01-15T13:43:49;12.23;;;6.03;;
1336;SDS011;662;48.814;9.318;2024-01-15T13:46:16;8.40;;;6.00;;
1336;SDS011;662;48.814;9.318;2024-01-15T13:48:42;9.50;;;7.40;;
1336;SDS011;662;48.814;9.318;2024-01-15T13:51:08;6.60;;;5.27;;
1336;SDS011;662;48.814;9.318;2024-01-15T13:53:34;8.83;;;5.80;;
1336;SDS011;662;48.814;9.318;2024-01-15T13:56:00;9.00;;;6.13;;
1336;SDS011;662;48.814;9.318;2024-01-15T13:58:25;7.00;;;5.30;;
1336;SDS011;662;48.814;9.318;2024-01-15T14:00:51;7.87;;;5.97;;
1336;SDS011;662;48.814;9.318;2024-01-15T14:03:17;11.93;;;6.20;;
1336;SDS011;662;48.814;9.318;2024-01-15T14:05:44;6.20;;;5.60;;
1336;SDS011;662;48.814;9.318;2024-01-15T14:08:10;8.33;;;5.87;;
1336;SDS011;662;48.814;9.318;2024-01-15T14:10:35;6.53;;;5.50;;
1336;SDS011;662;48.814;9.318;2024-01-15T14:13:02;7.30;;;5.33;;
1336;SDS011;662;48.814;9.318;2024-01-15T14:15:28;7.10;;;4.67;;
1336;SDS011;662;48.814;9.318;2024-01-15T14:17:54;5.17;;;4.70;;
1336;SDS011;662;48.814;9.318;2024-01-15T14:20:19;5.73;;;5.13;;
1336;SDS011;662;48.814;9.318;2024-01-15T14:22:45;6.30;;;5.30;;
1336;SDS011;662;48.814;9.318;2024-01-15T14:25:11;6.60;;;4.80;;
1336;SDS011;662;48.814;9.318;2024-01-15T14:27:36;7.03;;;5.63;;
1336;SDS011;662;48.814;9.318;2024-01-15T14:30:02;5.30;;;4.80;;
1336;SDS011;662;48.814;9.318;2024-01-15T14:32:28;6.33;;;4.73;;
1336;SDS011;662;48.814;9.318;2024-01-15T14:34:54;5.80;;;4.80;;
1336;SDS011;662;48.814;9.318;2024-01-15T14:37:21;8.07;;;5.33;;
1336;SDS011;662;48.814;9.318;2024-01-15T14:39:47;9.03;;;5.20;;
1336;SDS011;662;48.814;9.318;2024-01-15T14:42:13;6.43;;;5.50;;
1336;SDS011;662;48.814;9.318;2024-01-15T14:44:38;7.70;;;6.00;;
1336;SDS011;662;48.814;9.318;2024-01-15T14:47:06;7.13;;;6.40;;
1336;SDS011;662;48.814;9.318;2024-01-15T14:49:33;7.17;;;6.50;;
1336;SDS011;662;48.814;9.318;2024-01-15T14:51:59;7.77;;;6.90;;
1336;SDS011;662;48.814;9.318;2024-01-15T14:54:25;7.70;;;6.93;;
1336;SDS011;662;48.814;9.318;2024-01-15T14:56:50;11.80;;;7.50;;
1336;SDS011;662;48.814;9.318;2024-01-15T14:59:16;10.37;;;7.80;;
1336;SDS011;662;48.814;9.318;2024-01-15T15:01:42;9.37;;;8.00;;
1336;SDS011;662;48.814;9.318;2024-01-15T15:04:08;8.83;;;7.57;;
1336;SDS011;662;48.814;9.318;2024-01-15T15:06:35;11.03;;;9.20;;
1336;SDS011;662;48.814;9.318;2024-01-15T15:09:01;10.07;;;8.73;;
1336;SDS011;662;48.814;9.318;2024-01-15T15:11:27;9.00;;;8.10;;
1336;SDS011;662;48.814;9.318;2024-01-15T15:13:53;10.40;;;8.97;;
1336;SDS011;662;48.814;9.318;2024-01-15T15:16:18;10.43;;;8.20;;
1336;SDS011;662;48.814;9.318;2024-01-15T15:18:44;10.50;;;9.00;;